Time;durP1;ratioP1;P1;durP2;ratioP2;P2;SDS_P1;SDS_P2;PMS_P1;PMS_P2;Temp;Humidity;BMP_temperature;BMP_pressure;BME280_temperature;BME280_humidity;BME280_pressure;Samples;Min_cycle;Max_cycle;Signal;HPM_P1;HPM_P2
2023/06/02 07:23:37;;;;;;;0.57;0.55;;;;;;;;;;7396669;19;20531;-87
2023/06/02 07:26:03;;;;;;;0.60;0.60;;;;;;;;;;7404410;19;20145;-88
2023/06/02 07:28:30;;;;;;;0.95;0.82;;;;;;;;;;7402398;19;20632;-87
2023/06/02 07:31:03;;;;;;;1.02;1.00;;;;;;;;;;7406391;19;20171;-86
2023/06/02 07:33:36;;;;;;;0.80;0.80;;;;;;;;;;7407714;19;20137;-87
2023/06/02 15:08:11;;;;;;;0.50;0.50;;;;;;;;;;7403659;19;20125;-89
2023/06/02 15:10:56;;;;;;;0.68;0.68;;;;;;;;;;7396451;19;20168;-88
2023/06/02 15:14:07;;;;;;;0.73;0.73;;;;;;;;;;7402017;19;20709;-88
2023/06/02 15:16:41;;;;;;;0.63;0.63;;;;;;;;;;7398486;19;20137;-88
2023/06/02 15:19:08;;;;;;;0.68;0.68;;;;;;;;;;7395291;19;20137;-88
2023/06/02 15:22:06;;;;;;;0.60;0.60;;;;;;;;;;7398417;19;20157;-88
2023/06/02 15:24:48;;;;;;;0.50;0.50;;;;;;;;;;7398879;19;20542;-87
2023/06/02 15:27:15;;;;;;;0.70;0.70;;;;;;;;;;7399609;19;20137;-87
2023/06/02 15:29:41;;;;;;;0.40;0.40;;;;;;;;;;7399901;19;20141;-88
2023/06/02 15:35:47;;;;;;;0.85;0.85;;;;;;;;;;7399165;19;20136;-87
2023/06/02 15:38:31;;;;;;;1.40;0.75;;;;;;;;;;7398679;19;20160;-87
2023/06/02 15:41:04;;;;;;;0.43;0.43;;;;;;;;;;7399001;19;20152;-87
2023/06/02 15:43:31;;;;;;;0.40;0.40;;;;;;;;;;7398028;19;20162;-88
2023/06/02 15:45:57;;;;;;;1.25;1.15;;;;;;;;;;7399817;19;20622;-87
2023/06/02 15:48:24;;;;;;;0.63;0.63;;;;;;;;;;7400064;19;20178;-87
2023/06/02 15:50:51;;;;;;;0.85;0.82;;;;;;;;;;7398383;19;20169;-87
2023/06/02 15:53:17;;;;;;;0.55;0.47;;;;;;;;;;7400131;19;20125;-88
2023/06/02 15:55:44;;;;;;;0.85;0.85;;;;;;;;;;7399557;19;20169;-88
2023/06/02 15:58:11;;;;;;;0.60;0.60;;;;;;;;;;7399838;19;20139;-89
2023/06/02 16:00:37;;;;;;;0.50;0.50;;;;;;;;;;7395809;19;20228;-88
2023/06/02 16:03:04;;;;;;;0.60;0.60;;;;;;;;;;7394700;19;20144;-88
2023/06/02 16:05:33;;;;;;;0.68;0.68;;;;;;;;;;7394676;19;20166;-88
2023/06/02 16:08:00;;;;;;;0.73;0.73;;;;;;;;;;7399772;19;20462;-89
2023/06/02 16:10:27;;;;;;;0.63;0.63;;;;;;;;;;7395171;19;20509;-88
2023/06/02 16:12:55;;;;;;;0.65;0.65;;;;;;;;;;7401612;19;20128;-89
2023/06/02 16:15:22;;;;;;;0.73;0.73;;;;;;;;;;7396167;19;20146;-89
2023/06/02 16:17:50;;;;;;;0.65;0.65;;;;;;;;;;7399048;19;20137;-88
2023/06/02 16:20:16;;;;;;;0.85;0.85;;;;;;;;;;7399850;19;20183;-89
2023/06/02 16:22:43;;;;;;;0.52;0.52;;;;;;;;;;7402504;19;20144;-89
2023/06/02 16:25:10;;;;;;;0.88;0.88;;;;;;;;;;7402880;19;20138;-88
2023/06/02 16:27:37;;;;;;;0.40;0.40;;;;;;;;;;7402072;19;20877;-89
2023/06/02 16:30:04;;;;;;;0.73;0.60;;;;;;;;;;7401216;19;20638;-89
2023/06/02 16:32:31;;;;;;;0.60;0.60;;;;;;;;;;7400281;19;20504;-90
2023/06/02 16:34:59;;;;;;;0.40;0.40;;;;;;;;;;7394829;19;20135;-89
2023/06/02 16:37:26;;;;;;;0.57;0.57;;;;;;;;;;7399014;19;20154;-88
2023/06/02 16:39:53;;;;;;;1.02;1.02;;;;;;;;;;7399142;19;20171;-89
2023/06/02 16:42:20;;;;;;;0.68;0.68;;;;;;;;;;7402804;19;20189;-88
2023/06/02 16:44:47;;;;;;;1.70;1.15;;;;;;;;;;7401387;19;20133;-89
2023/06/02 16:47:13;;;;;;;0.60;0.60;;;;;;;;;;7400530;19;20145;-89
2023/06/02 16:49:40;;;;;;;0.60;0.60;;;;;;;;;;7402015;19;20133;-89
2023/06/02 16:52:07;;;;;;;0.63;0.63;;;;;;;;;;7397267;19;20549;-89
2023/06/02 16:54:34;;;;;;;0.52;0.50;;;;;;;;;;7395837;19;20162;-89
2023/06/02 16:57:01;;;;;;;0.52;0.52;;;;;;;;;;7403611;19;20201;-90
2023/06/02 16:59:30;;;;;;;1.52;1.42;;;;;;;;;;7399456;19;20163;-89
2023/06/02 17:01:57;;;;;;;0.80;0.80;;;;;;;;;;7395728;19;20196;-89
2023/06/02 17:04:24;;;;;;;0.63;0.63;;;;;;;;;;7397932;19;20150;-88
2023/06/02 17:06:51;;;;;;;0.68;0.63;;;;;;;;;;7395015;19;20168;-89
2023/06/02 17:09:18;;;;;;;0.70;0.70;;;;;;;;;;7395408;19;20183;-89
2023/06/02 17:11:45;;;;;;;0.50;0.50;;;;;;;;;;7395335;19;20173;-89
2023/06/02 17:14:16;;;;;;;0.52;0.52;;;;;;;;;;7397223;19;20137;-89
2023/06/02 17:16:42;;;;;;;0.73;0.73;;;;;;;;;;7393962;19;20152;-88
2023/06/02 17:19:11;;;;;;;0.52;0.52;;;;;;;;;;7396184;19;20141;-89
2023/06/02 17:21:38;;;;;;;1.85;0.77;;;;;;;;;;7393544;19;20181;-89
2023/06/02 17:24:06;;;;;;;0.52;0.52;;;;;;;;;;7390837;19;20161;-89
2023/06/02 17:26:33;;;;;;;0.57;0.57;;;;;;;;;;7395621;19;20132;-89
2023/06/02 17:29:00;;;;;;;1.13;0.68;;;;;;;;;;7393559;19;20517;-89
2023/06/02 17:32:01;;;;;;;0.63;0.63;;;;;;;;;;7393356;19;20149;-89
2023/06/02 17:34:39;;;;;;;0.40;0.40;;;;;;;;;;7394343;19;20133;-89
2023/06/02 17:37:05;;;;;;;0.65;0.65;;;;;;;;;;7397897;19;20157;-90
2023/06/02 17:39:33;;;;;;;0.50;0.50;;;;;;;;;;7395847;19;20137;-89
2023/06/02 17:42:00;;;;;;;0.57;0.57;;;;;;;;;;7397202;19;20136;-89
2023/06/02 17:44:27;;;;;;;0.60;0.60;;;;;;;;;;7398618;19;20165;-89
2023/06/02 17:46:53;;;;;;;0.63;0.63;;;;;;;;;;7399073;19;20153;-89
2023/06/02 17:49:20;;;;;;;0.52;0.52;;;;;;;;;;7394793;19;20144;-88
2023/06/02 17:51:48;;;;;;;0.85;0.82;;;;;;;;;;7398841;19;20169;-88
2023/06/02 17:54:14;;;;;;;0.98;0.73;;;;;;;;;;7391059;19;20512;-89
2023/06/02 17:56:47;;;;;;;1.65;0.77;;;;;;;;;;7398144;19;20136;-87
2023/06/02 17:59:16;;;;;;;0.50;0.50;;;;;;;;;;7393484;19;20574;-88
2023/06/02 18:01:46;;;;;;;0.40;0.40;;;;;;;;;;7393806;19;20639;-88
2023/06/02 18:04:18;;;;;;;0.50;0.50;;;;;;;;;;7395094;19;20192;-87
2023/06/02 18:06:45;;;;;;;0.73;0.73;;;;;;;;;;7395604;19;20141;-88
2023/06/02 18:09:18;;;;;;;0.45;0.45;;;;;;;;;;7390852;19;20157;-88
2023/06/02 18:11:51;;;;;;;0.40;0.40;;;;;;;;;;7392769;19;20186;-87
2023/06/02 18:14:20;;;;;;;0.70;0.70;;;;;;;;;;7390039;19;20509;-87
2023/06/02 18:17:43;;;;;;;0.60;0.60;;;;;;;;;;7395857;19;20149;-88
2023/06/02 18:21:09;;;;;;;0.60;0.60;;;;;;;;;;7383761;19;20208;-88
2023/06/02 18:24:56;;;;;;;1.35;0.77;;;;;;;;;;7388727;19;20220;-88
2023/06/02 18:27:23;;;;;;;0.60;0.60;;;;;;;;;;7399143;19;20149;-88
2023/06/02 18:29:49;;;;;;;0.77;0.65;;;;;;;;;;7401585;19;20179;-89
2023/06/02 18:32:24;;;;;;;0.90;0.90;;;;;;;;;;7399549;19;20152;-90
2023/06/02 18:35:24;;;;;;;0.80;0.80;;;;;;;;;;7401761;19;20131;-88
2023/06/02 18:37:53;;;;;;;0.93;0.93;;;;;;;;;;7399049;19;20141;-88
2023/06/02 18:40:20;;;;;;;0.63;0.63;;;;;;;;;;7397788;19;20721;-90
2023/06/02 18:42:47;;;;;;;0.65;0.60;;;;;;;;;;7402771;19;20204;-90
2023/06/02 18:45:13;;;;;;;3.08;1.00;;;;;;;;;;7405709;19;20208;-91
2023/06/02 18:47:40;;;;;;;0.90;0.90;;;;;;;;;;7429356;19;20133;-91
2023/06/02 18:50:08;;;;;;;1.55;1.10;;;;;;;;;;7429767;19;20176;-90
2023/06/02 18:52:35;;;;;;;1.02;0.93;;;;;;;;;;7428122;19;20161;-91
2023/06/02 18:55:01;;;;;;;0.50;0.50;;;;;;;;;;7430386;19;20141;-91
2023/06/02 18:57:28;;;;;;;0.95;0.95;;;;;;;;;;7430948;19;20140;-92
2023/06/02 18:59:55;;;;;;;0.73;0.73;;;;;;;;;;7426989;19;20164;-91
2023/06/02 19:02:22;;;;;;;0.80;0.80;;;;;;;;;;7423988;19;20173;-90
2023/06/02 19:04:51;;;;;;;0.88;0.88;;;;;;;;;;7426024;19;20136;-91
2023/06/02 19:07:18;;;;;;;1.23;1.13;;;;;;;;;;7423778;19;20139;-90
2023/06/02 19:09:44;;;;;;;0.80;0.80;;;;;;;;;;7402424;19;20140;-91
2023/06/02 19:12:11;;;;;;;0.77;0.77;;;;;;;;;;7399515;19;20484;-91
2023/06/02 19:14:38;;;;;;;1.30;1.25;;;;;;;;;;7396820;19;20220;-90
2023/06/02 19:17:05;;;;;;;0.70;0.70;;;;;;;;;;7406952;19;20169;-90
2023/06/02 19:47:37;;;;;;;1.10;0.85;;;;;;;;;;7415326;19;20229;-92
2023/06/02 19:50:05;;;;;;;0.57;0.57;;;;;;;;;;7412482;19;20172;-93
2023/06/02 19:52:39;;;;;;;0.70;0.55;;;;;;;;;;7412144;19;20233;-93
2023/06/02 19:55:11;;;;;;;0.75;0.75;;;;;;;;;;7417040;19;20161;-92
2023/06/02 19:57:39;;;;;;;0.60;0.60;;;;;;;;;;7407835;19;20244;-91
2023/06/02 20:00:08;;;;;;;1.02;0.95;;;;;;;;;;7395583;19;20168;-90
2023/06/02 20:02:35;;;;;;;0.68;0.68;;;;;;;;;;7396464;19;20147;-92
2023/06/02 20:05:12;;;;;;;1.33;0.82;;;;;;;;;;7400289;19;20166;-91
2023/06/02 20:07:40;;;;;;;0.77;0.77;;;;;;;;;;7407348;19;20144;-93
2023/06/02 20:10:08;;;;;;;1.65;1.15;;;;;;;;;;7404854;19;20172;-93
2023/06/02 20:12:35;;;;;;;1.10;1.08;;;;;;;;;;7404410;19;20208;-93
2023/06/02 20:15:22;;;;;;;1.25;0.70;;;;;;;;;;7403494;19;20483;-92
2023/06/02 20:18:53;;;;;;;0.73;0.73;;;;;;;;;;7402465;19;20137;-93
2023/06/02 20:21:26;;;;;;;6.70;1.20;;;;;;;;;;7402096;19;20164;-92
2023/06/02 20:23:53;;;;;;;0.60;0.60;;;;;;;;;;7399222;19;20149;-93
2023/06/02 20:26:21;;;;;;;0.85;0.85;;;;;;;;;;7394838;19;20141;-92
2023/06/02 20:28:47;;;;;;;2.55;1.13;;;;;;;;;;7391596;19;20188;-91
2023/06/02 20:31:14;;;;;;;0.57;0.57;;;;;;;;;;7389212;19;20169;-91
2023/06/02 20:33:41;;;;;;;1.30;1.20;;;;;;;;;;7386503;19;20166;-92
2023/06/02 20:36:08;;;;;;;0.93;0.93;;;;;;;;;;7391551;19;20150;-92
2023/06/02 20:38:34;;;;;;;0.70;0.63;;;;;;;;;;7392350;19;20213;-92
2023/06/02 20:41:01;;;;;;;0.93;0.93;;;;;;;;;;7391466;19;20165;-92
2023/06/02 20:43:28;;;;;;;1.75;0.82;;;;;;;;;;7394173;19;21027;-92
2023/06/02 20:45:58;;;;;;;1.05;1.05;;;;;;;;;;7392010;19;20188;-92
2023/06/02 20:48:25;;;;;;;0.82;0.82;;;;;;;;;;7388936;19;20145;-92
2023/06/02 20:50:52;;;;;;;0.82;0.82;;;;;;;;;;7384922;19;20161;-91
2023/06/02 20:53:19;;;;;;;1.33;1.23;;;;;;;;;;7385499;19;20141;-91
2023/06/02 20:55:46;;;;;;;1.20;1.20;;;;;;;;;;7387445;19;20609;-92
2023/06/02 20:58:15;;;;;;;0.95;0.95;;;;;;;;;;7389832;19;20148;-92
2023/06/02 21:00:42;;;;;;;0.95;0.75;;;;;;;;;;7394345;19;20148;-91
2023/06/02 21:03:09;;;;;;;1.30;1.20;;;;;;;;;;7396096;19;20145;-90
2023/06/02 21:05:36;;;;;;;0.70;0.70;;;;;;;;;;7394189;19;20484;-92
2023/06/02 21:08:03;;;;;;;1.13;0.80;;;;;;;;;;7400559;19;20137;-93
2023/06/02 21:10:30;;;;;;;1.08;1.08;;;;;;;;;;7403161;19;20176;-93
2023/06/02 21:12:57;;;;;;;1.20;1.10;;;;;;;;;;7401646;19;20137;-93
2023/06/02 21:15:24;;;;;;;0.88;0.88;;;;;;;;;;7404487;19;20216;-93
2023/06/02 21:17:54;;;;;;;0.90;0.90;;;;;;;;;;7407018;19;20144;-93
2023/06/02 21:20:22;;;;;;;0.60;0.60;;;;;;;;;;7404123;19;20164;-92
2023/06/02 21:22:49;;;;;;;0.40;0.40;;;;;;;;;;7400608;19;20133;-92
2023/06/02 21:25:15;;;;;;;0.90;0.90;;;;;;;;;;7396513;19;20220;-92
2023/06/02 21:27:43;;;;;;;1.27;1.08;;;;;;;;;;7391215;19;20514;-92
2023/06/02 21:30:13;;;;;;;0.70;0.70;;;;;;;;;;7382788;19;20164;-91
2023/06/02 21:32:41;;;;;;;0.55;0.55;;;;;;;;;;7388292;19;20144;-90
2023/06/02 21:35:08;;;;;;;1.15;0.98;;;;;;;;;;7391587;19;20169;-91
2023/06/02 21:37:35;;;;;;;1.30;1.23;;;;;;;;;;7389801;19;20476;-91
2023/06/02 21:40:01;;;;;;;1.60;1.50;;;;;;;;;;7383631;19;20165;-90
2023/06/02 21:42:28;;;;;;;0.68;0.68;;;;;;;;;;7390895;19;20137;-91
2023/06/02 21:44:57;;;;;;;0.98;0.98;;;;;;;;;;7392592;19;20136;-91
2023/06/02 21:47:24;;;;;;;0.85;0.85;;;;;;;;;;7399699;19;20133;-90
2023/06/02 21:49:51;;;;;;;0.70;0.70;;;;;;;;;;7399531;19;20168;-90
2023/06/02 21:52:17;;;;;;;0.45;0.45;;;;;;;;;;7397761;19;20145;-90
2023/06/02 21:54:44;;;;;;;0.70;0.70;;;;;;;;;;7400490;19;20535;-88
2023/06/02 21:57:11;;;;;;;0.60;0.60;;;;;;;;;;7400609;19;20145;-89
2023/06/02 21:59:39;;;;;;;4.28;1.05;;;;;;;;;;7394247;19;20132;-89
2023/06/02 22:02:06;;;;;;;1.08;0.98;;;;;;;;;;7396461;19;20180;-89
2023/06/02 22:04:32;;;;;;;0.68;0.68;;;;;;;;;;7397474;19;20150;-89
2023/06/02 22:06:59;;;;;;;0.85;0.85;;;;;;;;;;7399982;19;20146;-89
2023/06/02 22:09:32;;;;;;;0.70;0.70;;;;;;;;;;7397887;19;21406;-90
2023/06/02 22:15:57;;;;;;;2.60;1.08;;;;;;;;;;7397072;19;20160;-90
2023/06/02 22:18:24;;;;;;;0.50;0.50;;;;;;;;;;7394944;19;20137;-89
2023/06/02 22:20:51;;;;;;;1.30;0.95;;;;;;;;;;7394706;19;20220;-90
2023/06/02 22:23:17;;;;;;;0.95;0.95;;;;;;;;;;7393338;19;20148;-89
2023/06/02 22:25:44;;;;;;;0.93;0.93;;;;;;;;;;7394738;19;20167;-89
2023/06/02 22:28:11;;;;;;;0.60;0.60;;;;;;;;;;7393738;19;20147;-89
2023/06/02 22:30:37;;;;;;;1.05;1.05;;;;;;;;;;7391314;19;20149;-91
2023/06/02 22:33:04;;;;;;;1.00;1.00;;;;;;;;;;7395131;19;20132;-92
2023/06/02 22:35:31;;;;;;;0.77;0.77;;;;;;;;;;7392579;19;20141;-92
2023/06/02 22:37:58;;;;;;;1.23;0.88;;;;;;;;;;7395080;19;20128;-92
2023/06/02 22:40:33;;;;;;;0.93;0.93;;;;;;;;;;7395296;19;20177;-89
2023/06/02 22:42:59;;;;;;;1.13;1.13;;;;;;;;;;7395241;19;20144;-90
2023/06/02 22:45:26;;;;;;;3.58;1.05;;;;;;;;;;7390500;19;20155;-90
2023/06/02 22:47:53;;;;;;;0.65;0.65;;;;;;;;;;7390781;19;20166;-91
2023/06/02 22:50:20;;;;;;;0.75;0.75;;;;;;;;;;7392327;19;20153;-91
2023/06/02 22:52:46;;;;;;;1.30;1.10;;;;;;;;;;7391801;19;20129;-91
2023/06/02 22:55:13;;;;;;;1.10;1.10;;;;;;;;;;7388769;19;20221;-91
2023/06/02 22:57:40;;;;;;;1.75;1.23;;;;;;;;;;7389051;19;20558;-90
2023/06/02 23:00:07;;;;;;;0.70;0.70;;;;;;;;;;7387019;19;20168;-91
2023/06/02 23:02:34;;;;;;;1.60;1.50;;;;;;;;;;7389562;19;20145;-90
2023/06/02 23:05:00;;;;;;;1.13;1.13;;;;;;;;;;7388491;19;20489;-91
2023/06/02 23:07:27;;;;;;;0.77;0.77;;;;;;;;;;7389653;19;20152;-92
2023/06/02 23:09:54;;;;;;;1.05;1.05;;;;;;;;;;7387452;19;20168;-92
2023/06/02 23:12:20;;;;;;;0.75;0.75;;;;;;;;;;7393285;19;20157;-92
2023/06/02 23:14:47;;;;;;;0.68;0.68;;;;;;;;;;7398953;19;20625;-90
2023/06/02 23:17:14;;;;;;;1.13;1.02;;;;;;;;;;7396685;19;20133;-92
2023/06/02 23:19:40;;;;;;;1.02;0.82;;;;;;;;;;7396643;19;20133;-92
2023/06/02 23:22:07;;;;;;;0.57;0.57;;;;;;;;;;7401142;19;20122;-91
2023/06/02 23:24:34;;;;;;;2.13;1.02;;;;;;;;;;7400137;19;20653;-92
2023/06/02 23:27:01;;;;;;;0.52;0.52;;;;;;;;;;7397703;19;20132;-91
2023/06/02 23:29:28;;;;;;;1.02;1.02;;;;;;;;;;7396899;19;20144;-91
2023/06/02 23:31:54;;;;;;;1.02;0.88;;;;;;;;;;7397535;19;20602;-90
2023/06/02 23:34:22;;;;;;;1.15;1.15;;;;;;;;;;7395533;19;20148;-93
2023/06/02 23:36:48;;;;;;;0.85;0.80;;;;;;;;;;7397816;19;20137;-91
2023/06/02 23:39:15;;;;;;;1.20;0.93;;;;;;;;;;7395651;19;20132;-91
2023/06/02 23:41:42;;;;;;;0.70;0.70;;;;;;;;;;7389480;19;20148;-91
2023/06/02 23:44:08;;;;;;;0.98;0.98;;;;;;;;;;7396109;19;20129;-91
2023/06/02 23:46:35;;;;;;;1.77;1.45;;;;;;;;;;7394109;19;20139;-91
2023/06/02 23:49:02;;;;;;;1.17;1.17;;;;;;;;;;7392134;19;20610;-91
2023/06/02 23:51:28;;;;;;;0.73;0.73;;;;;;;;;;7393002;19;20176;-90
2023/06/02 23:53:55;;;;;;;0.50;0.50;;;;;;;;;;7396705;19;20145;-92
2023/06/02 23:56:22;;;;;;;0.52;0.52;;;;;;;;;;7393038;19;20621;-91
2023/06/02 23:58:49;;;;;;;0.68;0.68;;;;;;;;;;7394855;19;20200;-91
